Time;durP1;ratioP1;P1;durP2;ratioP2;P2;SDS_P1;SDS_P2;PMS_P1;PMS_P2;Temp;Humidity;BMP_temperature;BMP_pressure;BME280_temperature;BME280_humidity;BME280_pressure;Samples;Min_cycle;Max_cycle;Signal;HPM_P1;HPM_P2
2024/03/22 00:00:31;;;;;;;;;38.33;36.00;;;;;8.92;76.84;99809.06;6303082;20;3594057;-47
2024/03/22 00:02:58;;;;;;;;;44.00;37.00;;;;;9.14;74.45;99813.31;6269899;20;2841030;-45
2024/03/22 00:05:27;;;;;;;;;40.67;36.00;;;;;9.26;72.49;99807.28;6271260;20;2871293;-46
2024/03/22 00:07:54;;;;;;;;;49.00;37.33;;;;;9.45;70.31;99808.03;6306268;20;3597262;-49
2024/03/22 00:10:22;;;;;;;;;36.00;33.33;;;;;9.55;69.70;99804.81;6272996;20;2858770;-47
2024/03/22 00:12:50;;;;;;;;;37.33;34.33;;;;;9.43;71.77;99804.56;6304407;20;3602456;-47
2024/03/22 00:15:19;;;;;;;;;44.33;36.67;;;;;9.30;71.74;99803.50;6271536;20;2858604;-46
2024/03/22 00:17:46;;;;;;;;;42.33;34.00;;;;;9.42;72.27;99794.75;6305145;20;3620109;-46
2024/03/22 00:20:14;;;;;;;;;42.00;34.33;;;;;9.44;70.21;99798.22;6272526;20;2863890;-46
2024/03/22 00:22:42;;;;;;;;;46.00;36.50;;;;;9.45;71.04;99797.31;6302512;20;2855633;-46
2024/03/22 00:25:09;;;;;;;;;46.00;38.00;;;;;9.21;73.02;99790.59;6267329;20;2733589;-45
2024/03/22 00:27:37;;;;;;;;;49.50;39.50;;;;;9.05;76.37;99792.38;6302112;20;2873218;-48
2024/03/22 00:30:06;;;;;;;;;47.00;34.67;;;;;9.00;76.27;99793.50;6270927;20;3619128;-48
2024/03/22 00:32:34;;;;;;;;;44.00;37.00;;;;;8.74;78.94;99783.28;6302421;20;2845112;-46
2024/03/22 00:35:03;;;;;;;;;41.33;35.67;;;;;8.99;78.99;99789.06;6269320;20;3620076;-47
2024/03/22 00:37:30;;;;;;;;;48.00;37.50;;;;;9.19;74.00;99776.44;6303083;20;2873215;-47
2024/03/22 00:39:58;;;;;;;;;48.00;39.50;;;;;9.21;71.90;99778.06;6270490;20;2865927;-46
2024/03/22 00:42:25;;;;;;;;;46.67;34.33;;;;;9.29;71.25;99783.00;6274918;20;3622166;-49
2024/03/22 00:44:55;;;;;;;;;48.00;37.67;;;;;9.28;70.33;99783.09;6268442;20;2858795;-46
2024/03/22 00:47:22;;;;;;;;;44.00;36.00;;;;;9.09;70.09;99785.91;6307086;20;2842043;-47
2024/03/22 00:49:50;;;;;;;;;46.33;35.00;;;;;9.01;73.43;99778.28;6274443;20;2886810;-46
2024/03/22 00:52:19;;;;;;;;;45.00;36.33;;;;;8.78;75.24;99779.50;6307593;20;2861757;-46
2024/03/22 00:54:45;;;;;;;;;5.50;5.00;;;;;8.22;79.71;99773.44;6309395;20;2750291;-45
2024/03/22 00:57:14;;;;;;;;;38.00;34.33;;;;;8.44;79.83;99780.38;6305966;20;2873476;-45
2024/03/22 00:59:42;;;;;;;;;42.67;36.67;;;;;8.49;79.01;99767.66;6306569;20;2861949;-46
2024/03/22 01:02:09;;;;;;;;;39.00;34.50;;;;;8.79;72.86;99760.69;6307483;20;2853717;-48
2024/03/22 01:04:38;;;;;;;;;42.67;34.00;;;;;8.90;71.19;99772.63;6273870;20;2870353;-47
2024/03/22 01:07:05;;;;;;;;;46.00;37.00;;;;;8.64;72.29;99771.34;6310563;20;3590969;-45
2024/03/22 01:09:33;;;;;;;;;39.50;34.00;;;;;8.41;73.95;99777.88;6275048;20;2857780;-45
2024/03/22 01:12:00;;;;;;;;;40.50;36.00;;;;;7.74;81.44;99779.38;6275023;20;2857652;-47
2024/03/22 01:14:29;;;;;;;;;39.33;35.33;;;;;7.31;84.32;99768.06;6274441;20;2862857;-47
2024/03/22 01:16:57;;;;;;;;;42.67;37.67;;;;;7.44;86.08;99771.91;6304996;20;2869114;-47
2024/03/22 01:19:24;;;;;;;;;45.33;34.67;;;;;7.08;88.17;99769.13;6311521;20;3617965;-49
2024/03/22 01:21:52;;;;;;;;;43.00;37.50;;;;;6.98;89.59;99764.22;6273719;20;2845226;-48
2024/03/22 01:24:20;;;;;;;;;43.33;35.33;;;;;6.87;91.02;99766.50;6274344;20;2869023;-47
2024/03/22 01:26:49;;;;;;;;;49.00;38.33;;;;;7.06;90.60;99760.31;6305895;20;2873349;-45
2024/03/22 01:29:16;;;;;;;;;42.33;38.00;;;;;6.89;93.08;99758.44;6309329;20;3607550;-47
2024/03/22 01:31:44;;;;;;;;;51.33;37.00;;;;;6.85;92.87;99746.19;6273526;20;3634126;-45
2024/03/22 01:34:12;;;;;;;;;46.00;38.00;;;;;7.39;90.63;99752.56;6305876;20;2875310;-48
2024/03/22 01:36:39;;;;;;;;;48.50;38.50;;;;;7.46;87.10;99748.66;6271038;20;2499197;-46
2024/03/22 01:39:07;;;;;;;;;51.33;39.33;;;;;7.34;87.61;99747.41;6276440;20;3605553;-48
2024/03/22 01:41:35;;;;;;;;;63.67;50.00;;;;;7.52;84.45;99750.16;6305982;20;2869264;-46
2024/03/22 01:44:04;;;;;;;;;65.00;51.67;;;;;7.74;83.31;99752.66;6305100;20;3624219;-47
2024/03/22 01:46:32;;;;;;;;;62.00;49.67;;;;;7.90;82.22;99748.31;6302639;20;2872295;-47
2024/03/22 01:49:00;;;;;;;;;58.50;46.50;;;;;7.79;82.83;99756.81;6304765;20;2852331;-45
2024/03/22 01:51:29;;;;;;;;;55.33;43.67;;;;;7.87;81.90;99757.34;6273399;20;3621131;-47
2024/03/22 01:53:57;;;;;;;;;56.33;41.00;;;;;7.08;86.59;99761.13;6306638;20;3626295;-47
2024/03/22 01:56:24;;;;;;;;;50.00;40.50;;;;;6.40;93.57;99755.25;6273705;20;2846121;-47
2024/03/22 01:58:54;;;;;;;;;49.67;39.00;;;;;6.62;94.41;99761.41;6275411;20;2871211;-48
2024/03/22 02:01:23;;;;;;;;;50.00;40.67;;;;;6.91;94.13;99761.91;6304662;20;2870186;-46
2024/03/22 02:03:51;;;;;;;;;53.00;44.00;;;;;7.08;92.82;99763.78;6303932;20;2855703;-46
2024/03/22 02:06:18;;;;;;;;;52.50;40.00;;;;;7.10;93.87;99772.59;6275025;20;2850353;-47
2024/03/22 02:08:47;;;;;;;;;48.67;39.67;;;;;6.93;94.77;99771.59;6273939;20;2870361;-46
2024/03/22 02:11:15;;;;;;;;;48.50;41.00;;;;;7.19;93.67;99766.84;6305813;20;2856525;-47
2024/03/22 02:13:43;;;;;;;;;48.50;40.50;;;;;7.14;96.89;99763.53;6271867;20;2860728;-48
2024/03/22 02:16:11;;;;;;;;;46.33;38.00;;;;;7.36;96.48;99760.72;6273788;20;2860713;-47
2024/03/22 02:18:39;;;;;;;;;49.50;40.00;;;;;7.87;90.39;99761.81;6304728;20;2858774;-46
2024/03/22 02:21:07;;;;;;;;;54.00;44.33;;;;;7.88;89.94;99750.19;6274188;20;2860760;-46
2024/03/22 02:23:39;;;;;;;;;54.00;42.67;;;;;7.97;88.73;99744.38;6304761;20;3619010;-46
2024/03/22 02:26:08;;;;;;;;;54.67;43.33;;;;;7.93;88.85;99745.47;6306925;20;2861745;-48
2024/03/22 02:28:37;;;;;;;;;53.67;43.33;;;;;8.07;86.53;99751.00;6305286;20;2860797;-46
2024/03/22 02:31:05;;;;;;;;;58.33;44.33;;;;;8.13;86.99;99752.47;6306229;20;3621090;-45
2024/03/22 02:33:33;;;;;;;;;53.00;43.50;;;;;8.07;85.54;99750.13;6306093;20;2849337;-48
2024/03/22 02:36:01;;;;;;;;;50.50;41.00;;;;;8.00;86.69;99741.53;6276521;20;2856587;-46
2024/03/22 02:38:29;;;;;;;;;51.33;40.33;;;;;8.18;84.97;99746.91;6274811;20;2861779;-46
2024/03/22 02:40:58;;;;;;;;;52.33;40.67;;;;;8.13;82.71;99748.00;6307272;20;2862835;-45
2024/03/22 02:43:26;;;;;;;;;51.00;39.50;;;;;8.35;83.52;99741.56;6305051;20;2851448;-45
2024/03/22 02:45:54;;;;;;;;;52.67;40.00;;;;;8.37;81.74;99739.66;6272588;20;2855612;-47
2024/03/22 02:48:23;;;;;;;;;53.67;44.67;;;;;8.39;82.20;99750.28;6302997;20;2859742;-46
2024/03/22 02:50:56;;;;;;;;;56.50;46.00;;;;;8.39;84.08;99751.19;6306505;20;2865946;-45
2024/03/22 02:53:24;;;;;;;;;56.67;45.33;;;;;8.33;83.19;99754.16;6273652;20;2871321;-46
2024/03/22 02:55:53;;;;;;;;;61.00;48.33;;;;;8.52;81.17;99754.09;6303090;20;3618082;-46
2024/03/22 02:58:22;;;;;;;;;63.00;51.67;;;;;8.40;82.39;99754.72;6304510;20;3606544;-45
2024/03/22 03:00:50;;;;;;;;;59.00;46.00;;;;;7.73;90.33;99756.28;6305028;20;2865023;-47
2024/03/22 03:03:17;;;;;;;;;47.33;38.67;;;;;7.84;91.70;99753.94;6307025;20;3588804;-46
2024/03/22 03:05:46;;;;;;;;;64.33;47.67;;;;;8.01;92.33;99750.44;6271218;20;3636875;-45
2024/03/22 03:08:13;;;;;;;;;53.50;44.00;;;;;8.01;93.95;99740.63;6303952;20;2853485;-47
2024/03/22 03:10:42;;;;;;;;;59.33;47.33;;;;;8.12;92.04;99754.28;6274729;20;2867101;-48
2024/03/22 03:13:10;;;;;;;;;62.33;46.33;;;;;8.11;91.61;99751.72;6304100;20;3618070;-46
2024/03/22 03:15:38;;;;;;;;;63.33;49.00;;;;;8.22;88.08;99753.84;6302559;20;3642026;-47
2024/03/22 03:18:07;;;;;;;;;64.00;50.33;;;;;8.05;90.54;99747.53;6304677;20;3633616;-46
2024/03/22 03:20:35;;;;;;;;;60.67;49.33;;;;;7.92;91.80;99741.06;6304853;20;3626418;-47
2024/03/22 03:23:04;;;;;;;;;64.00;48.67;;;;;8.03;92.10;99746.75;6305180;20;3627482;-48
2024/03/22 03:25:32;;;;;;;;;68.00;50.33;;;;;8.29;87.25;99739.19;6301952;20;3626373;-45
2024/03/22 03:28:01;;;;;;;;;55.33;43.67;;;;;7.85;92.74;99745.00;6303102;20;3609881;-45
2024/03/22 03:30:28;;;;;;;;;51.50;41.50;;;;;7.74;97.37;99741.97;6304176;20;2851322;-46
2024/03/22 03:32:56;;;;;;;;;56.67;46.00;;;;;7.68;97.73;99749.34;6270563;20;2853506;-45
2024/03/22 03:35:25;;;;;;;;;60.33;46.33;;;;;7.84;95.60;99743.25;6302005;20;2868127;-45
2024/03/22 03:37:54;;;;;;;;;58.67;47.67;;;;;8.02;94.32;99742.34;6301952;20;2868162;-47
2024/03/22 03:40:24;;;;;;;;;57.33;46.67;;;;;8.00;92.12;99743.34;6303434;20;2854527;-46
2024/03/22 03:42:52;;;;;;;;;57.00;45.00;;;;;7.81;96.96;99741.59;6304107;20;2860828;-47
2024/03/22 03:45:20;;;;;;;;;50.00;40.00;;;;;7.80;98.09;99731.84;6300780;20;2848410;-46
2024/03/22 03:47:48;;;;;;;;;62.33;46.00;;;;;8.09;93.47;99743.75;6273216;20;3639879;-49
2024/03/22 03:50:17;;;;;;;;;52.33;43.33;;;;;8.10;91.83;99736.59;6302463;20;2859770;-45
2024/03/22 03:52:45;;;;;;;;;58.67;45.67;;;;;7.92;90.46;99725.00;6303371;20;3616105;-46
2024/03/22 03:55:14;;;;;;;;;57.33;45.67;;;;;8.09;89.53;99733.06;6303351;20;2862811;-45
2024/03/22 03:57:42;;;;;;;;;55.00;44.67;;;;;8.37;87.93;99726.28;6300042;20;3596249;-46
2024/03/22 04:00:11;;;;;;;;;55.67;42.33;;;;;8.52;85.21;99722.84;6303307;20;2865009;-45
2024/03/22 04:02:39;;;;;;;;;55.67;44.33;;;;;8.59;83.30;99735.94;6302910;20;3589904;-45
2024/03/22 04:05:08;;;;;;;;;57.33;46.67;;;;;8.67;83.70;99739.06;6300235;20;3603493;-45
2024/03/22 04:07:36;;;;;;;;;60.00;48.33;;;;;8.44;84.18;99743.78;6300829;20;2885763;-45
2024/03/22 04:10:05;;;;;;;;;55.00;45.50;;;;;8.36;84.15;99744.16;6302521;20;2858012;-48
2024/03/22 04:12:32;;;;;;;;;55.00;45.50;;;;;8.36;84.09;99748.66;6272143;20;2869060;-46
2024/03/22 04:15:01;;;;;;;;;62.33;49.33;;;;;8.60;82.75;99753.69;6270185;20;3644063;-46
2024/03/22 04:17:29;;;;;;;;;66.33;49.33;;;;;8.54;82.51;99750.41;6298468;20;3630586;-45
2024/03/22 04:19:57;;;;;;;;;62.67;47.67;;;;;8.56;82.93;99750.34;6300380;20;2882697;-46
2024/03/22 04:22:26;;;;;;;;;70.00;52.00;;;;;8.55;83.87;99756.59;6302623;20;3638950;-48
2024/03/22 04:24:54;;;;;;;;;60.67;49.00;;;;;8.29;86.75;99756.13;6302414;20;2862816;-49
2024/03/22 04:27:22;;;;;;;;;52.67;42.33;;;;;8.26;89.28;99758.09;6303600;20;3627372;-47
2024/03/22 04:29:51;;;;;;;;;60.00;47.00;;;;;8.06;89.82;99753.75;6303748;20;3626317;-46
2024/03/22 04:32:18;;;;;;;;;54.00;43.00;;;;;7.73;92.29;99748.25;6301983;20;2857574;-45
2024/03/22 04:34:46;;;;;;;;;59.50;46.50;;;;;8.16;91.03;99754.13;6270528;20;2866978;-47
2024/03/22 04:37:13;;;;;;;;;51.50;41.00;;;;;8.12;91.17;99754.28;6272023;20;2857601;-45
2024/03/22 04:39:41;;;;;;;;;60.00;45.67;;;;;7.98;90.91;99755.91;6271031;20;2874287;-45
2024/03/22 04:42:10;;;;;;;;;55.33;44.00;;;;;8.19;89.08;99760.22;6303668;20;2861882;-47
2024/03/22 04:44:37;;;;;;;;;52.00;43.50;;;;;8.21;88.18;99757.44;6301222;20;2867018;-46
2024/03/22 04:47:06;;;;;;;;;64.00;49.00;;;;;8.22;86.59;99764.53;6271372;20;3634635;-46
2024/03/22 04:49:33;;;;;;;;;57.50;46.00;;;;;8.20;87.98;99758.41;6300544;20;2843085;-48
2024/03/22 04:52:01;;;;;;;;;63.00;48.00;;;;;8.27;87.57;99754.47;6270927;20;2762795;-46
2024/03/22 04:54:30;;;;;;;;;102.00;74.25;;;;;8.30;86.71;99754.31;6266734;20;3698341;-46
2024/03/22 04:56:59;;;;;;;;;75.67;60.00;;;;;8.39;86.95;99751.19;6268696;20;2855653;-46
2024/03/22 04:59:28;;;;;;;;;69.33;54.00;;;;;8.59;85.91;99751.97;6302878;20;2880618;-48
2024/03/22 05:01:56;;;;;;;;;69.33;53.67;;;;;8.46;87.58;99747.25;6300990;20;3633693;-47
2024/03/22 05:04:24;;;;;;;;;64.33;51.33;;;;;8.70;85.51;99749.59;6298982;20;3633654;-47
2024/03/22 05:06:53;;;;;;;;;67.67;51.33;;;;;8.69;85.63;99753.19;6303134;20;3625275;-48
2024/03/22 05:09:21;;;;;;;;;65.00;50.67;;;;;8.86;84.58;99757.69;6302488;20;3633653;-47
2024/03/22 05:11:50;;;;;;;;;65.00;48.50;;;;;9.07;83.49;99759.19;6301852;20;2835696;-47
2024/03/22 05:14:20;;;;;;;;;71.67;51.33;;;;;9.08;83.42;99760.06;6301240;20;3649180;-47
2024/03/22 05:16:48;;;;;;;;;62.67;51.00;;;;;9.01;83.77;99765.75;6267892;20;3612781;-49
2024/03/22 05:19:17;;;;;;;;;65.00;50.00;;;;;9.09;83.87;99757.31;6301442;20;3627349;-48
2024/03/22 05:21:45;;;;;;;;;67.67;53.00;;;;;9.04;83.99;99764.72;6301923;20;3624260;-48
2024/03/22 05:24:13;;;;;;;;;66.00;52.33;;;;;9.06;83.71;99772.66;6299918;20;3624240;-47
2024/03/22 05:26:42;;;;;;;;;68.00;51.67;;;;;8.98;84.32;99781.13;6302155;20;3614894;-47
2024/03/22 05:29:11;;;;;;;;;63.00;51.33;;;;;8.90;85.57;99778.88;6298100;20;2857533;-49
2024/03/22 05:31:51;;;;;;;;;64.33;50.33;;;;;8.85;86.11;99775.56;6301285;20;3640915;-47
2024/03/22 05:34:19;;;;;;;;;58.33;47.00;;;;;8.91;86.28;99774.38;6305248;20;3605455;-46
2024/03/22 05:36:47;;;;;;;;;63.33;50.33;;;;;9.09;85.38;99769.84;6307070;20;3631532;-46
2024/03/22 05:39:15;;;;;;;;;61.33;49.00;;;;;9.06;85.66;99773.56;6308721;20;3628376;-45
2024/03/22 05:41:43;;;;;;;;;60.33;49.67;;;;;9.05;87.34;99768.25;6279849;20;3621172;-46
2024/03/22 05:44:11;;;;;;;;;66.00;51.00;;;;;9.20;86.32;99770.13;6274579;20;3642036;-47
2024/03/22 05:46:39;;;;;;;;;64.67;50.67;;;;;9.35;85.62;99763.91;6307654;20;3634665;-47
2024/03/22 05:49:08;;;;;;;;;60.67;47.33;;;;;9.48;84.86;99769.47;6306855;20;3617867;-45
2024/03/22 05:51:36;;;;;;;;;61.33;47.67;;;;;9.39;86.67;99767.28;6307057;20;3623329;-47
2024/03/22 05:54:05;;;;;;;;;64.33;49.33;;;;;9.40;86.74;99767.22;6306468;20;3638886;-48
2024/03/22 05:56:34;;;;;;;;;73.00;57.33;;;;;9.32;88.50;99772.13;6305638;20;3609820;-47
2024/03/22 05:59:03;;;;;;;;;74.67;57.00;;;;;9.38;90.02;99765.56;6305965;20;3643095;-46
2024/03/22 06:01:32;;;;;;;;;64.67;51.33;;;;;9.47;88.25;99762.34;6305295;20;2856628;-45
2024/03/22 06:04:01;;;;;;;;;69.00;52.33;;;;;9.53;87.78;99761.16;6304073;20;2872298;-48
2024/03/22 06:06:29;;;;;;;;;68.67;53.33;;;;;9.41;90.26;99755.53;6308514;20;3625251;-46
2024/03/22 06:09:00;;;;;;;;;70.67;55.00;;;;;9.31;89.66;99751.63;6275076;20;3630931;-46
2024/03/22 06:11:28;;;;;;;;;57.00;46.67;;;;;9.39;90.18;99759.25;6305770;20;3624311;-48
2024/03/22 06:13:57;;;;;;;;;64.00;51.00;;;;;9.73;87.30;99752.84;6304090;20;3628455;-51
2024/03/22 06:16:25;;;;;;;;;63.67;49.67;;;;;9.83;87.50;99762.09;6306571;20;3636833;-49
2024/03/22 06:18:54;;;;;;;;;63.67;49.00;;;;;9.80;85.92;99754.22;6305313;20;3634705;-44
2024/03/22 06:21:24;;;;;;;;;64.33;51.00;;;;;9.81;85.17;99766.69;6307185;20;3622161;-41
2024/03/22 06:23:53;;;;;;;;;66.33;51.67;;;;;9.36;88.90;99760.28;6303400;20;3621129;-40
2024/03/22 06:26:21;;;;;;;;;58.67;47.00;;;;;9.19;92.59;99746.97;6304570;20;3621087;-42
2024/03/22 06:28:49;;;;;;;;;66.67;52.67;;;;;9.49;93.99;99748.88;6309640;20;3626343;-40
2024/03/22 06:31:17;;;;;;;;;68.33;52.33;;;;;9.87;91.55;99760.97;6275302;20;3619008;-42
2024/03/22 06:33:45;;;;;;;;;68.00;54.00;;;;;10.10;88.01;99762.31;6307109;20;3602373;-41
2024/03/22 06:36:14;;;;;;;;;69.33;54.00;;;;;10.20;89.01;99756.41;6306338;20;3630894;-43
2024/03/22 06:38:42;;;;;;;;;66.33;52.00;;;;;10.57;85.09;99763.16;6304630;20;3610704;-40
2024/03/22 06:41:11;;;;;;;;;51.00;38.33;;;;;10.65;80.88;99768.94;6306256;20;3623179;-40
2024/03/22 06:43:38;;;;;;;;;63.00;50.33;;;;;10.93;79.50;99768.13;6305020;20;3620133;-40
2024/03/22 06:46:07;;;;;;;;;65.33;50.33;;;;;10.91;79.35;99764.66;6272749;20;3616949;-43
2024/03/22 06:48:35;;;;;;;;;64.67;51.67;;;;;10.94;80.03;99764.47;6305948;20;3610742;-41
2024/03/22 06:51:03;;;;;;;;;67.33;53.00;;;;;10.91;80.81;99769.19;6309294;20;3625313;-41
2024/03/22 06:53:31;;;;;;;;;67.33;53.00;;;;;10.85;83.75;99772.22;6273474;20;3612909;-41
2024/03/22 06:55:59;;;;;;;;;60.67;47.67;;;;;11.15;80.57;99773.00;6304997;20;3629441;-41
2024/03/22 06:58:28;;;;;;;;;56.67;46.33;;;;;11.45;78.49;99769.34;6305435;20;3605462;-42
2024/03/22 07:00:56;;;;;;;;;57.00;47.00;;;;;11.52;76.31;99772.50;6306599;20;3613830;-41
2024/03/22 07:03:24;;;;;;;;;62.00;48.00;;;;;11.58;75.27;99778.34;6273802;20;3633620;-41
2024/03/22 07:05:52;;;;;;;;;66.67;52.67;;;;;11.98;74.07;99778.50;6305929;20;3619030;-41
2024/03/22 07:08:21;;;;;;;;;66.00;51.00;;;;;12.23;73.33;99785.78;6273597;20;3610706;-41
2024/03/22 07:10:49;;;;;;;;;56.33;46.00;;;;;12.86;70.36;99784.19;6307130;20;2860755;-42
2024/03/22 07:13:17;;;;;;;;;60.67;49.67;;;;;13.48;67.57;99782.56;6306440;20;3619593;-41
2024/03/22 07:15:49;;;;;;;;;68.33;53.67;;;;;14.13;67.25;99794.91;6307200;20;3601350;-39
2024/03/22 07:18:16;;;;;;;;;60.33;48.00;;;;;14.31;68.11;99793.53;6276937;20;3625257;-42
2024/03/22 07:20:46;;;;;;;;;58.00;46.33;;;;;14.39;68.36;99790.25;6277053;20;3623756;-42
2024/03/22 07:23:14;;;;;;;;;51.33;40.00;;;;;15.00;64.51;99796.38;6273641;20;2862991;-42
2024/03/22 07:25:45;;;;;;;;;50.33;41.67;;;;;15.24;62.23;99792.72;6306181;20;3600388;-41
2024/03/22 07:28:13;;;;;;;;;48.00;40.00;;;;;15.64;61.41;99800.34;6273814;20;2840026;-42
2024/03/22 07:30:42;;;;;;;;;51.00;40.33;;;;;15.42;63.24;99799.38;6274449;20;3613820;-43
2024/03/22 07:33:16;;;;;;;;;54.33;41.33;;;;;15.52;63.12;99797.66;6304729;20;3620234;-42
2024/03/22 07:35:44;;;;;;;;;49.67;39.67;;;;;14.70;65.91;99795.06;6308179;20;3610708;-42
2024/03/22 07:38:12;;;;;;;;;49.00;41.00;;;;;14.90;64.52;99800.78;6277577;20;3602352;-44
2024/03/22 07:40:40;;;;;;;;;43.33;36.00;;;;;14.98;63.51;99808.28;6275700;20;2856577;-43
2024/03/22 07:43:07;;;;;;;;;47.00;38.67;;;;;14.96;63.55;99800.31;6308168;20;3581510;-42
2024/03/22 07:45:36;;;;;;;;;52.00;40.67;;;;;14.99;64.36;99801.91;6270355;20;3614885;-41
2024/03/22 07:48:04;;;;;;;;;46.33;37.67;;;;;14.81;63.67;99804.19;6307402;20;3592146;-41
2024/03/22 07:50:33;;;;;;;;;48.33;39.33;;;;;14.59;64.57;99799.59;6275371;20;2845250;-41
2024/03/22 07:53:00;;;;;;;;;42.67;35.33;;;;;14.76;63.90;99803.69;6307288;20;3607546;-41
2024/03/22 07:55:28;;;;;;;;;47.33;38.33;;;;;14.96;62.81;99803.03;6273549;20;2858722;-41
2024/03/22 07:57:57;;;;;;;;;47.67;36.33;;;;;15.10;62.62;99808.19;6305550;20;3614927;-41
2024/03/22 08:00:25;;;;;;;;;48.33;37.67;;;;;15.32;62.32;99803.78;6273218;20;2853456;-41
2024/03/22 08:02:53;;;;;;;;;50.67;40.00;;;;;15.39;61.15;99807.72;6310252;20;3600317;-41
2024/03/22 08:05:21;;;;;;;;;48.33;39.67;;;;;15.45;61.06;99799.13;6274651;20;2858722;-41
2024/03/22 08:07:49;;;;;;;;;41.00;35.00;;;;;15.48;60.90;99801.59;6308424;20;3594096;-42
2024/03/22 08:10:17;;;;;;;;;45.33;38.33;;;;;15.57;61.63;99800.00;6275181;20;3605573;-44
2024/03/22 08:12:45;;;;;;;;;43.67;36.33;;;;;15.46;61.38;99803.56;6304903;20;2845125;-42
2024/03/22 08:15:13;;;;;;;;;45.33;38.00;;;;;15.55;60.46;99800.09;6305866;20;3608632;-44
2024/03/22 08:17:41;;;;;;;;;46.00;38.00;;;;;15.64;60.57;99811.16;6273483;20;3597200;-42
2024/03/22 08:20:09;;;;;;;;;53.33;44.67;;;;;15.68;60.35;99812.66;6307334;20;3597206;-43
2024/03/22 08:22:37;;;;;;;;;61.00;48.67;;;;;15.50;61.24;99813.13;6272505;20;3617958;-40
2024/03/22 08:25:07;;;;;;;;;46.00;36.00;;;;;15.53;60.26;99822.84;6305894;20;3606536;-41
2024/03/22 08:27:35;;;;;;;;;45.33;37.33;;;;;15.63;59.94;99814.88;6275111;20;3605496;-42
2024/03/22 08:30:03;;;;;;;;;45.00;38.33;;;;;15.28;61.33;99823.97;6306104;20;3602441;-41
2024/03/22 08:32:32;;;;;;;;;45.33;36.33;;;;;15.29;61.34;99823.81;6274261;20;2848293;-42
2024/03/22 08:34:59;;;;;;;;;43.00;35.33;;;;;15.09;62.61;99821.84;6305934;20;3603407;-49
2024/03/22 08:37:27;;;;;;;;;38.00;33.67;;;;;15.04;62.44;99818.66;6277443;20;3606616;-42
2024/03/22 08:39:55;;;;;;;;;42.00;36.67;;;;;15.22;61.66;99821.72;6273589;20;2850443;-42
2024/03/22 08:42:23;;;;;;;;;46.00;38.00;;;;;15.26;61.48;99829.47;6307301;20;3594055;-41
2024/03/22 08:44:51;;;;;;;;;43.33;35.00;;;;;14.89;63.36;99826.94;6272035;20;2855491;-41
2024/03/22 08:47:19;;;;;;;;;40.00;35.00;;;;;14.89;63.44;99817.97;6302869;20;2854546;-44
2024/03/22 08:49:47;;;;;;;;;43.67;35.00;;;;;14.91;63.39;99818.72;6307991;20;3590897;-42
2024/03/22 08:52:15;;;;;;;;;46.33;35.67;;;;;14.77;63.93;99827.03;6275023;20;2860748;-40
2024/03/22 08:54:43;;;;;;;;;46.00;37.33;;;;;14.86;63.55;99827.19;6304615;20;3597188;-42
2024/03/22 08:57:11;;;;;;;;;44.33;36.00;;;;;14.76;63.98;99823.47;6271799;20;2841950;-40
2024/03/22 08:59:40;;;;;;;;;43.67;36.67;;;;;14.80;64.22;99816.88;6304079;20;3579513;-41
2024/03/22 09:02:08;;;;;;;;;44.33;36.00;;;;;14.88;64.32;99814.41;6266430;20;2846163;-41
2024/03/22 09:04:35;;;;;;;;;44.00;36.00;;;;;14.80;64.71;99821.41;6304992;20;3588933;-43
2024/03/22 09:07:04;;;;;;;;;44.50;35.50;;;;;14.96;64.74;99824.66;6268459;20;2840990;-43
2024/03/22 09:09:32;;;;;;;;;41.00;34.00;;;;;14.81;63.93;99818.56;6277819;20;2851420;-42
2024/03/22 09:11:59;;;;;;;;;49.67;37.67;;;;;14.91;63.82;99818.72;6311051;20;3620093;-41
2024/03/22 09:14:27;;;;;;;;;41.00;35.00;;;;;15.15;63.26;99815.94;6275910;20;2856096;-42
2024/03/22 09:16:54;;;;;;;;;48.00;38.33;;;;;15.35;63.02;99822.50;6281012;20;3608683;-41
2024/03/22 09:19:23;;;;;;;;;44.33;36.33;;;;;15.39;61.35;99815.84;6277913;20;2842095;-41
2024/03/22 09:21:50;;;;;;;;;39.67;34.00;;;;;15.55;61.23;99808.22;6311256;20;3607544;-40
2024/03/22 09:24:18;;;;;;;;;38.00;33.33;;;;;15.53;60.97;99804.81;6278014;20;3617963;-40
2024/03/22 09:26:46;;;;;;;;;40.67;35.00;;;;;15.92;59.19;99805.28;6308508;20;3578393;-42
2024/03/22 09:29:14;;;;;;;;;42.33;34.00;;;;;16.05;58.75;99807.84;6276120;20;3595124;-42
2024/03/22 09:31:42;;;;;;;;;41.00;33.67;;;;;15.94;58.98;99802.44;6312229;20;3624262;-40
2024/03/22 09:34:09;;;;;;;;;43.00;35.67;;;;;16.30;57.65;99793.13;6278638;20;3574285;-41
2024/03/22 09:36:36;;;;;;;;;35.00;32.00;;;;;16.50;56.46;99787.88;6278402;20;3595168;-43
2024/03/22 09:39:05;;;;;;;;;41.00;35.33;;;;;16.55;56.09;99780.22;6278459;20;3610713;-43
2024/03/22 09:41:33;;;;;;;;;39.67;34.67;;;;;16.37;56.62;99783.47;6310175;20;3594053;-41
2024/03/22 09:44:04;;;;;;;;;39.33;31.33;;;;;16.94;54.82;99780.53;6279674;20;3608639;-41
2024/03/22 09:46:34;;;;;;;;;37.00;32.00;;;;;16.71;56.15;99775.19;6275963;20;2858758;-41
2024/03/22 09:49:02;;;;;;;;;41.33;34.67;;;;;17.60;53.75;99786.44;6310679;20;3603391;-43
2024/03/22 09:51:30;;;;;;;;;38.00;31.33;;;;;17.92;52.55;99786.28;6283611;20;3609716;-41
2024/03/22 09:53:58;;;;;;;;;43.00;36.00;;;;;17.76;52.88;99777.78;6276708;20;3591964;-41
2024/03/22 09:56:26;;;;;;;;;42.67;35.00;;;;;17.77;51.95;99768.63;6281225;20;3594046;-41
2024/03/22 09:58:55;;;;;;;;;40.33;35.33;;;;;17.90;52.88;99766.53;6277487;20;3610870;-41
2024/03/22 10:01:26;;;;;;;;;44.33;36.00;;;;;18.29;51.94;99772.03;6311961;20;3590974;-41
2024/03/22 10:03:54;;;;;;;;;40.67;35.33;;;;;18.42;51.23;99766.31;6276117;20;3581574;-41
2024/03/22 10:06:23;;;;;;;;;40.33;35.33;;;;;18.88;50.86;99775.66;6276649;20;3596126;-45
2024/03/22 10:08:51;;;;;;;;;39.67;33.67;;;;;19.15;49.56;99761.25;6312025;20;3613839;-41
2024/03/22 10:11:18;;;;;;;;;38.33;34.00;;;;;18.24;51.91;99766.16;6280250;20;3606705;-40
2024/03/22 10:13:51;;;;;;;;;49.67;36.33;;;;;18.16;53.12;99769.59;6280613;20;3608650;-42
2024/03/22 10:16:19;;;;;;;;;42.00;34.67;;;;;18.30;53.03;99760.19;6275292;20;3596221;-43
2024/03/22 10:18:48;;;;;;;;;35.33;32.00;;;;;18.54;51.52;99750.75;6308559;20;3608593;-42
2024/03/22 10:21:19;;;;;;;;;43.67;37.00;;;;;18.25;53.75;99756.19;6281003;20;3598200;-43
2024/03/22 10:23:48;;;;;;;;;35.33;32.00;;;;;18.07;52.63;99748.72;6277168;20;3596218;-44
2024/03/22 10:26:17;;;;;;;;;27.33;27.33;;;;;18.62;49.92;99746.28;6279771;20;3577375;-42
2024/03/22 10:28:48;;;;;;;;;29.67;29.00;;;;;18.26;50.34;99750.56;6279840;20;3587976;-44
2024/03/22 10:31:16;;;;;;;;;38.67;33.00;;;;;18.64;50.31;99740.69;6281485;20;3598328;-42
2024/03/22 10:33:45;;;;;;;;;32.67;30.67;;;;;18.60;49.07;99737.41;6279133;20;3594127;-42
2024/03/22 10:36:13;;;;;;;;;29.33;27.33;;;;;18.48;49.32;99744.00;6280092;20;3601306;-42
2024/03/22 10:38:41;;;;;;;;;26.67;26.67;;;;;18.50;49.52;99735.69;6277152;20;3597353;-42
2024/03/22 10:41:08;;;;;;;;;30.00;24.67;;;;;18.24;49.22;99738.13;6277105;20;3592967;-41
2024/03/22 10:43:36;;;;;;;;;28.67;27.00;;;;;18.30;50.20;99732.13;6278139;20;3600396;-41
2024/03/22 10:46:03;;;;;;;;;32.67;28.00;;;;;18.53;50.03;99738.97;6278110;20;3596126;-42
2024/03/22 10:48:32;;;;;;;;;27.00;26.67;;;;;18.52;49.98;99742.72;6277048;20;3596150;-42
2024/03/22 10:51:01;;;;;;;;;32.33;29.33;;;;;18.89;48.01;99739.25;6277959;20;3579401;-43
2024/03/22 10:53:32;;;;;;;;;29.67;27.67;;;;;18.92;48.13;99743.56;6277319;20;3585950;-44
2024/03/22 10:56:02;;;;;;;;;34.67;31.33;;;;;19.33;47.91;99736.84;6280298;20;3596056;-42
2024/03/22 10:58:30;;;;;;;;;30.67;28.00;;;;;18.88;48.69;99748.44;6278311;20;3594061;-45
2024/03/22 11:00:57;;;;;;;;;30.00;29.00;;;;;19.42;47.24;99735.06;6276417;20;3593114;-41
2024/03/22 11:03:28;;;;;;;;;31.00;29.33;;;;;19.28;47.32;99733.72;6274636;20;2850403;-41
2024/03/22 11:05:57;;;;;;;;;24.00;24.00;;;;;18.14;48.93;99730.84;6309567;20;3582972;-42
2024/03/22 11:08:28;;;;;;;;;39.33;32.00;;;;;18.68;49.96;99724.94;6274986;20;3611745;-42
2024/03/22 11:11:10;;;;;;;;;21.67;19.33;;;;;19.11;47.64;99729.03;6308685;20;3577516;-45